Time;durP1;ratioP1;P1;durP2;ratioP2;P2;SDS_P1;SDS_P2;PMS_P1;PMS_P2;Temp;Humidity;BMP_temperature;BMP_pressure;BME280_temperature;BME280_humidity;BME280_pressure;Samples;Min_cycle;Max_cycle;Signal;HPM_P1;HPM_P2
2022/10/27 00:02:06;;;;;;;5.00;3.00;;;12.20;87.00;;;;;;5038871;28;20200;-57
2022/10/27 00:04:31;;;;;;;5.27;3.10;;;12.20;87.50;;;;;;5030133;28;20206;-57
2022/10/27 00:06:57;;;;;;;10.60;3.40;;;12.10;87.60;;;;;;5012252;28;20210;-57
2022/10/27 00:09:23;;;;;;;6.70;3.50;;;12.10;87.80;;;;;;5013903;28;20210;-57
2022/10/27 00:11:48;;;;;;;6.80;3.87;;;12.10;88.00;;;;;;5049344;28;20191;-57
2022/10/27 00:14:14;;;;;;;7.03;3.60;;;12.10;87.80;;;;;;5014330;28;20211;-56
2022/10/27 00:16:40;;;;;;;8.03;3.10;;;12.10;87.60;;;;;;5033197;28;20179;-57
2022/10/27 00:19:05;;;;;;;9.40;3.20;;;12.10;87.40;;;;;;5033089;28;20180;-57
2022/10/27 00:21:31;;;;;;;5.57;2.73;;;12.00;87.30;;;;;;5049117;28;20241;-57
2022/10/27 00:23:57;;;;;;;6.03;3.57;;;12.00;87.50;;;;;;5005675;28;20183;-57
2022/10/27 00:26:22;;;;;;;5.87;3.20;;;12.10;87.40;;;;;;5033213;28;20381;-57
2022/10/27 00:28:48;;;;;;;5.73;3.30;;;12.10;87.40;;;;;;5040026;28;20188;-57
2022/10/27 00:31:17;;;;;;;5.03;3.43;;;12.00;87.20;;;;;;5020958;28;20195;-57
2022/10/27 00:33:43;;;;;;;5.67;3.67;;;12.00;87.30;;;;;;5036237;28;20198;-57
2022/10/27 00:36:12;;;;;;;4.40;3.20;;;11.90;87.30;;;;;;5032962;28;20202;-55
2022/10/27 00:38:39;;;;;;;5.83;3.60;;;12.00;87.30;;;;;;5042093;28;20187;-57
2022/10/27 00:41:06;;;;;;;8.27;3.70;;;11.90;87.20;;;;;;5032434;28;20207;-57
2022/10/27 00:43:38;;;;;;;5.83;3.07;;;11.90;87.00;;;;;;5027371;28;20281;-57
2022/10/27 00:46:25;;;;;;;5.57;3.30;;;11.80;87.00;;;;;;5032516;28;20183;-57
2022/10/27 00:48:57;;;;;;;5.10;3.37;;;11.80;86.90;;;;;;5033597;28;20178;-57
2022/10/27 00:51:23;;;;;;;5.97;2.87;;;11.80;87.00;;;;;;5032568;28;20195;-57
2022/10/27 00:53:49;;;;;;;6.87;3.27;;;11.80;86.70;;;;;;5030969;28;20213;-57
2022/10/27 00:56:16;;;;;;;7.23;3.17;;;11.70;87.10;;;;;;5024641;28;20239;-57
2022/10/27 00:58:44;;;;;;;7.50;3.40;;;11.70;87.00;;;;;;5019677;28;20252;-57
2022/10/27 01:01:10;;;;;;;6.13;3.50;;;11.70;87.10;;;;;;5056435;28;20203;-58
2022/10/27 01:03:35;;;;;;;4.17;2.60;;;11.70;87.10;;;;;;5045795;28;20191;-57
2022/10/27 01:06:01;;;;;;;5.40;2.97;;;11.70;87.10;;;;;;5048395;28;20250;-56
2022/10/27 01:08:27;;;;;;;4.63;2.90;;;11.70;87.30;;;;;;5033291;28;20197;-57
2022/10/27 01:10:53;;;;;;;8.47;3.30;;;11.70;87.30;;;;;;5015946;28;20191;-57
2022/10/27 01:13:19;;;;;;;7.57;2.90;;;11.70;87.20;;;;;;5016301;28;20191;-57
2022/10/27 01:16:02;;;;;;;4.03;3.23;;;11.70;87.30;;;;;;5026311;28;20228;-57
2022/10/27 01:18:57;;;;;;;6.43;3.20;;;11.70;87.30;;;;;;5036269;28;20187;-56
2022/10/27 01:22:01;;;;;;;9.67;3.30;;;11.70;87.20;;;;;;5059152;28;20207;-57
2022/10/27 01:24:47;;;;;;;8.83;3.60;;;11.70;87.20;;;;;;5035813;28;20193;-57
2022/10/27 01:27:21;;;;;;;7.30;3.17;;;11.60;87.20;;;;;;5031236;28;20241;-57
2022/10/27 01:29:59;;;;;;;7.77;4.50;;;11.60;87.20;;;;;;5034911;28;20214;-57
2022/10/27 01:32:31;;;;;;;5.53;3.23;;;11.60;87.20;;;;;;5033664;28;20187;-57
2022/10/27 01:35:04;;;;;;;7.50;3.77;;;11.60;86.90;;;;;;5036636;28;20253;-57
2022/10/27 01:37:51;;;;;;;3.43;2.80;;;11.60;87.30;;;;;;5047772;28;20649;-57
2022/10/27 01:40:25;;;;;;;5.60;3.50;;;11.60;87.40;;;;;;5035363;28;20206;-57
2022/10/27 01:42:57;;;;;;;5.73;3.07;;;11.60;87.30;;;;;;5037917;28;20190;-57
2022/10/27 01:45:28;;;;;;;8.50;3.13;;;11.60;87.20;;;;;;5035132;28;20175;-57
2022/10/27 01:47:55;;;;;;;10.57;2.93;;;11.60;87.10;;;;;;5035995;28;20180;-57
2022/10/27 01:50:28;;;;;;;6.20;3.37;;;11.50;87.10;;;;;;5052627;28;20214;-57
2022/10/27 01:52:54;;;;;;;4.83;3.00;;;11.50;87.30;;;;;;5036623;28;20332;-57
2022/10/27 01:55:31;;;;;;;4.33;2.57;;;11.30;87.20;;;;;;5040146;28;20261;-56
2022/10/27 01:58:21;;;;;;;5.97;3.00;;;11.30;87.50;;;;;;5041540;28;20218;-58
2022/10/27 02:01:21;;;;;;;5.33;3.00;;;11.30;87.50;;;;;;5036061;28;20207;-57
2022/10/27 02:04:12;;;;;;;9.30;3.90;;;11.30;87.30;;;;;;5020472;28;20214;-56
2022/10/27 02:07:04;;;;;;;3.47;2.90;;;11.30;87.40;;;;;;5059059;28;20210;-57
2022/10/27 02:09:34;;;;;;;3.60;2.73;;;11.30;87.40;;;;;;5071280;28;20183;-56
2022/10/27 02:12:06;;;;;;;6.33;2.90;;;11.30;87.30;;;;;;5036046;28;20183;-57
2022/10/27 02:14:34;;;;;;;4.47;2.90;;;11.30;87.40;;;;;;5037647;28;20175;-57
2022/10/27 02:17:01;;;;;;;8.37;2.87;;;11.30;87.30;;;;;;5052925;28;20175;-56
2022/10/27 02:19:35;;;;;;;5.43;3.13;;;11.30;87.30;;;;;;5036063;28;20241;-57
2022/10/27 02:22:02;;;;;;;3.93;3.07;;;11.30;87.30;;;;;;5018384;28;20182;-55
2022/10/27 02:24:29;;;;;;;6.33;3.10;;;11.30;87.20;;;;;;5011570;28;20242;-57
2022/10/27 02:27:33;;;;;;;7.70;2.80;;;11.30;87.10;;;;;;5019453;28;20188;-57
2022/10/27 02:30:02;;;;;;;6.17;2.73;;;11.30;87.20;;;;;;5029764;28;20179;-57
2022/10/27 02:32:28;;;;;;;6.53;3.10;;;11.30;87.20;;;;;;4980582;28;20193;-57
2022/10/27 02:34:56;;;;;;;5.23;2.97;;;11.30;87.00;;;;;;5029199;28;20662;-57
2022/10/27 02:37:32;;;;;;;6.17;2.57;;;11.20;87.10;;;;;;5021730;28;20250;-57
2022/10/27 02:39:58;;;;;;;5.77;2.93;;;11.30;87.20;;;;;;5041400;28;20273;-56
2022/10/27 02:42:24;;;;;;;6.97;3.53;;;11.30;87.10;;;;;;5057699;28;20282;-57
2022/10/27 02:44:50;;;;;;;5.90;3.13;;;11.00;87.30;;;;;;5057141;28;20205;-57
2022/10/27 02:47:15;;;;;;;4.53;3.00;;;11.00;87.60;;;;;;5022165;28;20184;-57
2022/10/27 02:49:41;;;;;;;6.80;3.40;;;11.00;87.40;;;;;;5038385;28;20556;-55
2022/10/27 02:52:07;;;;;;;7.00;3.07;;;11.10;87.40;;;;;;5019290;28;20241;-57
2022/10/27 02:54:32;;;;;;;6.80;2.70;;;11.10;87.30;;;;;;5060163;28;20238;-57
2022/10/27 02:56:58;;;;;;;3.40;2.47;;;11.10;87.20;;;;;;5052495;28;20187;-57
2022/10/27 02:59:24;;;;;;;4.77;2.67;;;11.10;87.20;;;;;;5020845;28;20194;-57
2022/10/27 03:01:50;;;;;;;6.03;2.93;;;11.10;87.30;;;;;;5018309;28;20270;-57
2022/10/27 03:04:15;;;;;;;5.17;2.83;;;11.20;87.40;;;;;;5014719;28;20279;-57
2022/10/27 03:06:41;;;;;;;4.43;2.60;;;11.10;87.30;;;;;;5031893;28;20187;-56
2022/10/27 03:09:07;;;;;;;3.23;2.50;;;11.20;87.40;;;;;;5014778;28;20191;-57
2022/10/27 03:11:32;;;;;;;5.77;3.20;;;11.10;87.80;;;;;;5021410;28;20207;-57
2022/10/27 03:13:58;;;;;;;5.27;2.70;;;11.20;87.70;;;;;;5037904;28;20195;-57
2022/10/27 03:16:24;;;;;;;5.03;2.83;;;11.10;87.50;;;;;;5029777;28;20216;-57
2022/10/27 03:18:49;;;;;;;4.20;2.27;;;11.10;87.50;;;;;;5014022;28;20247;-56
2022/10/27 03:21:15;;;;;;;5.93;2.43;;;11.10;87.60;;;;;;5060083;28;20214;-57
2022/10/27 03:23:41;;;;;;;7.97;3.27;;;11.10;87.60;;;;;;5022515;28;20191;-57
2022/10/27 03:26:06;;;;;;;5.97;2.90;;;11.20;87.60;;;;;;5050508;28;20240;-57
2022/10/27 03:28:35;;;;;;;2.97;2.63;;;11.20;87.60;;;;;;5041145;28;20239;-56
2022/10/27 03:31:02;;;;;;;4.77;2.00;;;11.20;87.60;;;;;;5034113;28;20183;-57
2022/10/27 03:33:28;;;;;;;5.00;2.67;;;11.20;87.70;;;;;;5008344;28;20234;-57
2022/10/27 03:35:53;;;;;;;5.63;2.60;;;11.10;87.50;;;;;;5037888;28;20229;-57
2022/10/27 03:38:19;;;;;;;6.07;2.70;;;11.00;87.90;;;;;;5053640;28;20199;-57
2022/10/27 03:40:44;;;;;;;5.67;2.60;;;11.10;87.90;;;;;;5025020;28;20220;-57
2022/10/27 03:43:10;;;;;;;4.70;2.40;;;11.10;87.80;;;;;;5056150;28;20186;-57
2022/10/27 03:45:36;;;;;;;7.10;2.83;;;11.10;87.80;;;;;;5070318;28;20183;-57
2022/10/27 03:48:10;;;;;;;4.77;3.57;;;11.10;87.90;;;;;;5066625;28;20200;-56
2022/10/27 03:50:35;;;;;;;7.13;2.50;;;11.10;87.90;;;;;;5040841;28;20187;-56
2022/10/27 03:53:02;;;;;;;11.20;2.97;;;11.20;87.90;;;;;;5035389;28;20696;-57
2022/10/27 03:55:28;;;;;;;5.53;2.70;;;11.20;87.80;;;;;;5056190;28;20245;-57
2022/10/27 03:57:54;;;;;;;3.40;2.30;;;11.20;87.70;;;;;;5033912;28;20219;-57
2022/10/27 04:00:20;;;;;;;3.93;2.67;;;11.20;87.90;;;;;;5015973;28;20281;-57
2022/10/27 04:02:46;;;;;;;4.60;2.73;;;11.10;87.90;;;;;;5067049;28;20281;-57
2022/10/27 04:05:12;;;;;;;5.33;3.10;;;11.10;87.90;;;;;;5015956;28;20285;-57
2022/10/27 04:07:38;;;;;;;5.13;2.37;;;11.20;87.80;;;;;;5005417;28;20184;-53
2022/10/27 04:10:04;;;;;;;4.80;2.80;;;11.20;87.80;;;;;;5048632;28;20561;-57
2022/10/27 04:12:30;;;;;;;5.47;2.80;;;11.20;87.80;;;;;;5051072;28;20244;-57
2022/10/27 04:14:56;;;;;;;6.27;2.73;;;11.20;87.80;;;;;;5022140;28;20203;-57
2022/10/27 04:17:21;;;;;;;5.73;3.00;;;11.20;87.90;;;;;;5050720;28;20253;-57
2022/10/27 04:19:47;;;;;;;4.13;2.70;;;11.20;87.90;;;;;;5044853;28;20266;-57
2022/10/27 04:22:13;;;;;;;6.47;3.00;;;11.20;87.80;;;;;;5021471;28;20192;-57
2022/10/27 04:24:39;;;;;;;3.47;2.63;;;11.20;87.80;;;;;;5057770;28;20191;-56
2022/10/27 04:27:05;;;;;;;4.60;2.80;;;11.20;87.80;;;;;;5040246;28;20211;-55
2022/10/27 04:29:31;;;;;;;7.67;2.60;;;11.20;87.80;;;;;;5022300;28;20190;-56
2022/10/27 04:31:57;;;;;;;10.07;3.73;;;11.30;87.80;;;;;;5038970;28;20192;-56
2022/10/27 04:34:22;;;;;;;7.17;3.10;;;11.20;87.80;;;;;;5048934;28;20252;-57
2022/10/27 04:36:48;;;;;;;8.23;3.00;;;11.20;87.80;;;;;;5029259;28;20603;-57
2022/10/27 04:39:14;;;;;;;4.63;2.50;;;11.20;87.80;;;;;;5034864;28;20263;-56
2022/10/27 04:41:40;;;;;;;6.27;3.43;;;11.20;87.70;;;;;;5034439;28;20214;-57
2022/10/27 04:44:06;;;;;;;5.57;3.10;;;11.20;87.70;;;;;;5029521;28;20191;-57
2022/10/27 04:46:32;;;;;;;8.83;3.30;;;11.20;88.00;;;;;;5034836;28;20179;-57
2022/10/27 04:48:58;;;;;;;4.77;2.83;;;11.20;88.10;;;;;;5066404;28;20187;-56
2022/10/27 04:51:23;;;;;;;7.50;2.93;;;11.20;88.10;;;;;;5027529;28;20207;-56
2022/10/27 04:53:49;;;;;;;4.43;2.43;;;11.30;88.10;;;;;;5041946;28;20186;-56
2022/10/27 04:56:15;;;;;;;5.30;3.73;;;11.20;88.10;;;;;;5018898;28;20245;-56
2022/10/27 04:58:42;;;;;;;4.07;3.27;;;11.20;88.00;;;;;;5015863;28;20191;-56
2022/10/27 05:01:09;;;;;;;4.23;2.97;;;11.20;87.90;;;;;;5060147;28;20289;-56
2022/10/27 05:03:35;;;;;;;5.30;3.30;;;11.20;87.80;;;;;;5038003;28;20182;-55
2022/10/27 05:06:01;;;;;;;6.67;3.00;;;11.10;87.70;;;;;;5044118;28;20317;-54
2022/10/27 05:08:27;;;;;;;8.80;3.60;;;11.20;87.80;;;;;;5030014;28;20730;-57
2022/10/27 05:10:52;;;;;;;10.47;3.97;;;11.10;87.70;;;;;;5053135;28;20198;-56
2022/10/27 05:13:18;;;;;;;3.53;2.87;;;11.10;87.60;;;;;;5055286;28;20194;-57
2022/10/27 05:15:43;;;;;;;8.37;3.20;;;11.10;87.60;;;;;;5069911;28;20199;-57
2022/10/27 05:18:09;;;;;;;3.90;3.47;;;11.10;87.60;;;;;;5029453;28;20199;-56
2022/10/27 05:20:35;;;;;;;4.47;2.80;;;11.10;87.70;;;;;;5031601;28;20205;-57
2022/10/27 05:23:00;;;;;;;6.10;2.70;;;11.10;87.80;;;;;;5036692;28;20197;-55
2022/10/27 05:25:26;;;;;;;8.63;3.50;;;11.10;87.70;;;;;;5033035;28;20291;-57
2022/10/27 05:27:52;;;;;;;4.23;3.53;;;11.10;87.60;;;;;;5037292;28;20276;-56
2022/10/27 05:30:17;;;;;;;7.80;3.07;;;11.10;87.50;;;;;;5053163;28;20191;-57
2022/10/27 05:32:43;;;;;;;10.07;3.80;;;11.00;87.50;;;;;;5019698;28;20198;-55
2022/10/27 05:35:09;;;;;;;4.73;3.90;;;11.10;87.50;;;;;;5036675;28;20194;-56
2022/10/27 05:37:35;;;;;;;5.63;3.40;;;11.10;87.70;;;;;;5062044;28;20194;-57
2022/10/27 05:40:00;;;;;;;5.70;4.00;;;11.10;87.90;;;;;;5053706;28;20215;-56
2022/10/27 05:42:27;;;;;;;5.00;3.43;;;11.10;87.80;;;;;;5050216;28;20218;-55
2022/10/27 05:44:52;;;;;;;4.47;3.70;;;11.20;87.90;;;;;;5016874;28;20191;-55
2022/10/27 05:47:18;;;;;;;5.87;4.23;;;11.20;87.80;;;;;;5013345;28;20190;-55
2022/10/27 05:49:44;;;;;;;7.43;3.63;;;11.10;87.60;;;;;;5055465;28;20213;-55
2022/10/27 05:52:09;;;;;;;7.60;4.50;;;11.10;87.60;;;;;;5038769;28;20207;-56
2022/10/27 05:54:35;;;;;;;4.70;3.90;;;11.10;87.50;;;;;;5035343;28;20232;-56
2022/10/27 05:57:01;;;;;;;3.93;3.50;;;11.10;87.40;;;;;;5045530;28;20187;-56
2022/10/27 05:59:26;;;;;;;5.07;4.07;;;11.10;87.40;;;;;;5033729;28;20334;-57
2022/10/27 06:01:52;;;;;;;5.57;4.23;;;11.10;87.30;;;;;;5047531;28;20191;-57
2022/10/27 06:04:18;;;;;;;7.27;4.90;;;11.10;87.30;;;;;;5033704;28;20206;-56
2022/10/27 06:06:43;;;;;;;6.70;4.33;;;11.10;87.40;;;;;;5027019;28;20187;-57
2022/10/27 06:09:09;;;;;;;5.97;4.53;;;11.10;87.50;;;;;;5043436;28;20210;-56
2022/10/27 06:11:34;;;;;;;7.73;4.20;;;11.10;87.50;;;;;;5036286;28;20198;-56
2022/10/27 06:14:00;;;;;;;4.53;4.13;;;11.10;87.20;;;;;;5048729;28;20241;-57
2022/10/27 06:16:26;;;;;;;7.67;3.97;;;11.00;87.40;;;;;;5050580;28;20226;-57
2022/10/27 06:18:52;;;;;;;7.83;4.63;;;11.10;87.50;;;;;;5027442;28;20184;-54
2022/10/27 06:21:21;;;;;;;4.97;3.80;;;11.10;87.60;;;;;;5027842;28;20202;-56
2022/10/27 06:23:47;;;;;;;6.83;4.43;;;11.10;87.60;;;;;;5034260;28;20274;-56
2022/10/27 06:26:13;;;;;;;7.47;4.27;;;11.10;87.60;;;;;;5038271;28;20275;-57
2022/10/27 06:28:39;;;;;;;6.63;3.90;;;11.10;87.60;;;;;;5034437;28;20179;-56
2022/10/27 06:31:05;;;;;;;6.83;4.07;;;11.20;87.60;;;;;;5051341;28;20191;-56
2022/10/27 06:33:30;;;;;;;6.73;4.73;;;11.10;87.70;;;;;;5032896;28;20244;-57
2022/10/27 06:35:56;;;;;;;6.03;4.17;;;11.20;87.60;;;;;;5017550;28;20199;-57
2022/10/27 06:38:21;;;;;;;6.33;4.00;;;11.20;87.70;;;;;;5050719;28;20187;-56
2022/10/27 06:40:47;;;;;;;8.03;5.47;;;11.20;87.70;;;;;;5029884;28;20215;-56
2022/10/27 06:43:13;;;;;;;10.40;4.77;;;11.30;87.80;;;;;;5049946;28;20190;-57
2022/10/27 06:45:39;;;;;;;7.37;4.90;;;11.30;87.90;;;;;;5029242;28;20184;-57
2022/10/27 06:48:07;;;;;;;5.90;4.90;;;11.30;87.90;;;;;;5059626;28;20190;-57
2022/10/27 06:50:33;;;;;;;9.23;4.97;;;11.30;88.00;;;;;;5034208;28;20221;-57
2022/10/27 06:53:00;;;;;;;6.93;4.70;;;11.30;88.00;;;;;;5063378;28;20272;-56
2022/10/27 06:55:26;;;;;;;7.33;5.00;;;11.30;88.10;;;;;;5032502;28;20231;-57
2022/10/27 06:57:52;;;;;;;5.27;4.77;;;11.30;88.20;;;;;;5065499;28;20183;-57
2022/10/27 07:00:18;;;;;;;8.00;4.70;;;11.40;88.30;;;;;;5039710;28;20213;-57
2022/10/27 07:02:44;;;;;;;7.50;5.23;;;11.40;88.40;;;;;;5049684;28;20333;-57
2022/10/27 07:05:10;;;;;;;9.63;4.87;;;11.50;88.50;;;;;;5013287;28;20270;-56
2022/10/27 07:07:36;;;;;;;7.67;5.70;;;11.50;88.50;;;;;;5016405;28;20190;-57
2022/10/27 07:10:04;;;;;;;7.47;5.30;;;11.60;88.80;;;;;;5034545;28;20195;-57
2022/10/27 07:12:29;;;;;;;6.97;5.20;;;11.60;88.70;;;;;;5031901;28;20190;-56
2022/10/27 07:14:55;;;;;;;5.77;5.17;;;11.60;88.80;;;;;;5032489;28;20187;-56
2022/10/27 07:17:20;;;;;;;8.57;5.70;;;11.70;88.80;;;;;;5040158;28;20191;-57
2022/10/27 07:19:46;;;;;;;6.43;5.30;;;11.70;89.00;;;;;;5012586;28;20203;-56
2022/10/27 07:22:12;;;;;;;8.53;5.90;;;11.80;88.90;;;;;;5028268;28;20190;-57
2022/10/27 07:24:37;;;;;;;9.33;5.87;;;11.80;88.90;;;;;;5049433;28;20206;-56
2022/10/27 07:27:03;;;;;;;9.93;5.70;;;11.80;88.80;;;;;;5046510;28;20187;-56
2022/10/27 07:29:29;;;;;;;7.37;4.97;;;11.80;88.80;;;;;;5046665;28;20202;-56
2022/10/27 07:31:55;;;;;;;8.60;5.90;;;11.90;88.80;;;;;;5029561;28;20202;-57
2022/10/27 07:34:21;;;;;;;9.43;5.80;;;11.90;88.80;;;;;;5065704;28;20272;-57
2022/10/27 07:36:46;;;;;;;10.30;6.53;;;12.00;88.70;;;;;;5049091;28;20628;-56
2022/10/27 07:39:12;;;;;;;9.33;5.60;;;12.00;88.70;;;;;;5035954;28;20192;-56
2022/10/27 07:41:38;;;;;;;10.53;6.27;;;12.10;88.70;;;;;;5046736;28;20230;-55
2022/10/27 07:44:03;;;;;;;12.70;5.23;;;12.10;88.70;;;;;;5013534;28;20278;-54
2022/10/27 07:46:29;;;;;;;9.53;5.60;;;12.20;88.80;;;;;;5032434;28;20191;-55
2022/10/27 07:48:55;;;;;;;9.43;5.47;;;12.20;88.70;;;;;;5015949;28;20241;-56
2022/10/27 07:51:21;;;;;;;9.37;6.60;;;12.30;88.70;;;;;;5025194;28;20222;-56
2022/10/27 07:53:49;;;;;;;9.80;4.90;;;12.30;88.60;;;;;;5033052;28;20200;-57
2022/10/27 07:56:17;;;;;;;10.47;6.10;;;12.30;88.50;;;;;;5030062;28;20246;-57
2022/10/27 07:58:43;;;;;;;8.00;5.50;;;12.30;88.50;;;;;;5012554;28;20264;-57
2022/10/27 08:01:09;;;;;;;9.33;5.63;;;12.40;88.40;;;;;;5053783;28;20235;-57
2022/10/27 08:03:34;;;;;;;9.77;5.33;;;12.50;88.40;;;;;;5028947;28;20214;-57
2022/10/27 08:06:04;;;;;;;7.07;5.33;;;12.50;88.40;;;;;;5048040;28;20192;-56
2022/10/27 08:08:30;;;;;;;9.63;5.03;;;12.50;88.30;;;;;;5040918;28;20190;-56
2022/10/27 08:10:56;;;;;;;7.50;4.53;;;12.60;88.20;;;;;;5044058;28;20182;-57
2022/10/27 08:13:22;;;;;;;10.43;5.80;;;12.60;88.20;;;;;;5046739;28;20201;-57
2022/10/27 08:15:48;;;;;;;8.40;5.27;;;12.60;88.30;;;;;;5025099;28;20194;-57
2022/10/27 08:18:15;;;;;;;6.70;5.67;;;12.60;88.30;;;;;;5018932;28;20203;-57
2022/10/27 08:20:43;;;;;;;9.43;4.90;;;12.70;88.10;;;;;;5022270;28;20218;-57
2022/10/27 08:23:17;;;;;;;8.47;5.77;;;12.70;88.10;;;;;;5049675;28;20195;-56
2022/10/27 08:25:43;;;;;;;7.37;5.23;;;12.80;88.20;;;;;;5032253;28;20194;-56
2022/10/27 08:28:10;;;;;;;13.00;5.27;;;12.80;88.20;;;;;;5048953;28;20186;-57
2022/10/27 08:30:36;;;;;;;9.10;5.60;;;12.90;88.10;;;;;;5047206;28;20521;-57
2022/10/27 08:33:03;;;;;;;11.30;6.27;;;12.90;88.10;;;;;;5019478;28;20183;-57
2022/10/27 08:35:30;;;;;;;7.90;5.40;;;13.00;88.10;;;;;;5048415;28;20654;-57
2022/10/27 08:38:19;;;;;;;8.67;5.23;;;13.00;87.90;;;;;;5012606;28;20192;-57
2022/10/27 08:41:23;;;;;;;8.93;5.30;;;13.10;87.90;;;;;;5038583;28;20256;-57
2022/10/27 08:44:13;;;;;;;7.33;4.97;;;13.20;87.90;;;;;;5019946;28;20194;-57
2022/10/27 08:46:52;;;;;;;6.67;4.33;;;13.20;87.80;;;;;;5033996;28;20186;-57
2022/10/27 08:49:40;;;;;;;7.10;5.30;;;13.30;88.00;;;;;;5035358;28;20193;-57
2022/10/27 08:52:39;;;;;;;7.73;4.93;;;13.40;87.80;;;;;;5060838;28;20198;-58
2022/10/27 08:55:14;;;;;;;9.73;5.43;;;13.50;87.50;;;;;;5021834;28;20238;-58
2022/10/27 08:57:57;;;;;;;10.03;5.10;;;13.60;87.40;;;;;;5028559;28;20210;-57
2022/10/27 09:00:23;;;;;;;9.77;5.50;;;13.60;87.40;;;;;;5030060;28;20198;-59
2022/10/27 09:03:24;;;;;;;7.67;5.30;;;13.60;87.30;;;;;;5046303;28;20201;-57
2022/10/27 09:06:21;;;;;;;7.20;4.97;;;13.70;87.80;;;;;;5017874;28;20258;-53
2022/10/27 09:09:02;;;;;;;7.57;5.77;;;13.80;87.30;;;;;;5027686;28;20277;-57
2022/10/27 09:11:54;;;;;;;9.37;5.20;;;14.10;87.10;;;;;;5056953;28;20197;-57
2022/10/27 09:14:44;;;;;;;8.40;5.00;;;14.20;85.90;;;;;;5066034;28;20191;-57
2022/10/27 09:17:40;;;;;;;9.37;5.03;;;14.30;85.10;;;;;;5031507;28;20175;-57
2022/10/27 09:20:32;;;;;;;7.33;4.80;;;14.40;84.70;;;;;;5076344;28;20226;-57
2022/10/27 09:23:00;;;;;;;7.80;4.87;;;14.40;85.20;;;;;;5021521;28;20194;-57
2022/10/27 09:25:27;;;;;;;6.30;5.00;;;14.50;85.10;;;;;;5063949;28;20214;-57
2022/10/27 09:27:55;;;;;;;7.97;4.60;;;14.60;85.10;;;;;;5047333;28;20223;-57
2022/10/27 09:30:21;;;;;;;5.53;4.43;;;14.60;84.90;;;;;;5034596;28;20191;-56
2022/10/27 09:32:52;;;;;;;6.10;4.40;;;14.70;85.10;;;;;;5041299;28;20187;-57
2022/10/27 09:35:29;;;;;;;7.07;4.20;;;14.70;85.00;;;;;;5030475;28;20196;-57
2022/10/27 09:37:57;;;;;;;6.77;4.53;;;14.70;84.90;;;;;;5064669;28;20214;-57
2022/10/27 09:40:24;;;;;;;6.20;4.23;;;15.00;82.90;;;;;;5032378;28;20291;-57
2022/10/27 09:42:52;;;;;;;6.60;4.20;;;15.10;83.00;;;;;;5018619;28;20232;-57
2022/10/27 09:45:24;;;;;;;7.30;3.73;;;15.10;82.90;;;;;;5031283;28;20196;-57
2022/10/27 09:47:56;;;;;;;5.47;3.83;;;15.30;83.20;;;;;;5034875;28;20207;-57
2022/10/27 09:50:27;;;;;;;5.87;3.77;;;15.30;81.70;;;;;;5039162;28;20261;-57
2022/10/27 09:52:53;;;;;;;4.50;3.50;;;15.30;81.60;;;;;;5048769;28;20207;-57
2022/10/27 09:55:19;;;;;;;5.13;3.63;;;15.40;80.10;;;;;;5070166;28;20247;-57
2022/10/27 09:57:46;;;;;;;4.13;3.30;;;15.50;80.90;;;;;;5040213;28;20191;-57
2022/10/27 10:00:15;;;;;;;3.70;3.30;;;15.60;79.00;;;;;;5035634;28;20221;-57
2022/10/27 10:02:54;;;;;;;6.10;3.40;;;15.70;78.60;;;;;;5033925;28;20190;-55
2022/10/27 10:05:36;;;;;;;6.17;3.17;;;15.80;78.40;;;;;;5033519;28;20184;-55
2022/10/27 10:08:23;;;;;;;5.70;3.00;;;16.00;78.10;;;;;;5057925;28;20240;-57
2022/10/27 10:10:58;;;;;;;4.83;2.50;;;16.20;76.00;;;;;;5035042;28;20196;-57
2022/10/27 10:13:25;;;;;;;3.67;3.20;;;16.50;74.00;;;;;;5033863;28;20187;-58
2022/10/27 10:16:09;;;;;;;4.57;2.57;;;16.50;74.20;;;;;;5038218;28;20197;-57
2022/10/27 10:18:37;;;;;;;4.70;2.30;;;16.90;72.10;;;;;;5037893;28;20195;-57
2022/10/27 10:21:09;;;;;;;5.93;2.93;;;16.80;72.50;;;;;;5033649;28;20261;-57
2022/10/27 10:23:46;;;;;;;6.13;2.90;;;17.00;70.80;;;;;;5032916;28;20192;-57
2022/10/27 10:26:30;;;;;;;5.60;2.13;;;17.10;71.30;;;;;;5032858;28;20233;-57
2022/10/27 10:29:06;;;;;;;5.97;2.30;;;17.10;71.70;;;;;;5033907;28;20198;-57
2022/10/27 10:31:32;;;;;;;5.47;2.80;;;17.10;69.40;;;;;;5036064;28;20233;-57
2022/10/27 10:34:07;;;;;;;4.83;2.53;;;17.60;68.00;;;;;;5014158;28;20219;-58
2022/10/27 10:36:38;;;;;;;7.03;2.70;;;17.60;69.50;;;;;;5045131;28;20195;-58
2022/10/27 10:39:25;;;;;;;7.83;3.23;;;17.40;71.40;;;;;;5041709;28;20195;-57
2022/10/27 10:42:12;;;;;;;4.83;2.40;;;17.30;72.10;;;;;;5033859;28;20241;-57
2022/10/27 10:44:38;;;;;;;5.47;2.63;;;17.10;73.40;;;;;;5047182;28;20189;-57
2022/10/27 10:47:18;;;;;;;4.63;2.50;;;17.20;70.00;;;;;;5076513;28;20184;-58
2022/10/27 10:49:50;;;;;;;5.67;2.90;;;17.40;69.70;;;;;;5026119;28;20195;-57
2022/10/27 10:52:20;;;;;;;7.63;2.60;;;17.50;70.50;;;;;;5031957;28;20187;-58
2022/10/27 10:54:46;;;;;;;4.67;2.70;;;17.80;69.40;;;;;;5033326;28;20231;-58
2022/10/27 10:57:25;;;;;;;5.00;2.83;;;17.80;68.70;;;;;;5040738;28;20203;-58
2022/10/27 10:59:53;;;;;;;13.87;3.77;;;17.70;69.70;;;;;;5037851;28;20237;-57
2022/10/27 11:02:27;;;;;;;5.83;3.13;;;18.10;69.20;;;;;;5026958;28;20195;-58
2022/10/27 11:04:54;;;;;;;7.27;3.00;;;18.10;69.90;;;;;;5031407;28;20219;-58
2022/10/27 11:07:31;;;;;;;5.57;2.97;;;17.90;70.60;;;;;;5027953;28;20210;-58
2022/10/27 11:10:03;;;;;;;6.93;2.47;;;18.00;70.30;;;;;;5033006;28;20183;-57
2022/10/27 11:12:36;;;;;;;6.57;3.20;;;17.90;70.50;;;;;;5044579;28;20203;-57
2022/10/27 11:15:24;;;;;;;6.33;2.63;;;17.90;70.80;;;;;;5032450;28;20187;-57
2022/10/27 11:17:53;;;;;;;4.00;2.40;;;17.90;71.70;;;;;;5021735;28;20194;-58
2022/10/27 11:20:26;;;;;;;5.27;2.37;;;18.00;71.80;;;;;;5030757;28;20212;-57
2022/10/27 11:22:52;;;;;;;6.00;2.77;;;18.10;71.50;;;;;;5028190;28;20186;-58
2022/10/27 11:25:26;;;;;;;4.53;2.40;;;18.10;71.20;;;;;;5047390;28;20187;-57
2022/10/27 11:28:03;;;;;;;4.50;2.60;;;18.20;70.90;;;;;;5031288;28;20183;-57
2022/10/27 11:30:30;;;;;;;3.57;2.53;;;18.30;70.90;;;;;;5031604;28;20199;-59
2022/10/27 11:33:23;;;;;;;4.53;2.03;;;18.50;70.50;;;;;;5016588;28;20183;-60
2022/10/27 11:36:11;;;;;;;4.43;2.03;;;18.80;67.20;;;;;;5033025;28;20187;-60
2022/10/27 11:39:02;;;;;;;3.90;2.27;;;19.40;64.10;;;;;;5021558;28;20195;-60
2022/10/27 11:41:31;;;;;;;3.97;2.17;;;19.30;66.20;;;;;;5032295;28;20200;-60
2022/10/27 11:44:22;;;;;;;5.83;2.10;;;19.50;62.00;;;;;;5042150;28;20193;-60
2022/10/27 11:47:03;;;;;;;3.23;2.07;;;19.50;65.50;;;;;;4976122;28;20196;-60
2022/10/27 11:49:44;;;;;;;5.13;1.90;;;19.60;64.80;;;;;;5039189;28;20194;-60
2022/10/27 11:52:40;;;;;;;3.07;2.30;;;19.60;64.60;;;;;;5041167;28;20219;-59
2022/10/27 11:55:09;;;;;;;3.73;2.00;;;19.70;64.80;;;;;;5056115;28;20234;-59
2022/10/27 11:57:50;;;;;;;3.23;1.93;;;19.90;62.80;;;;;;5032584;28;20175;-59
2022/10/27 12:00:24;;;;;;;3.20;1.83;;;20.00;62.70;;;;;;5024441;28;20211;-59
2022/10/27 12:03:13;;;;;;;5.33;1.87;;;20.00;60.80;;;;;;5022241;28;20213;-60
2022/10/27 12:06:02;;;;;;;2.30;1.67;;;20.20;60.10;;;;;;5031440;28;20261;-60
2022/10/27 12:08:46;;;;;;;4.93;1.90;;;20.10;63.50;;;;;;5032978;28;20287;-60
2022/10/27 12:11:29;;;;;;;3.63;2.13;;;20.20;60.70;;;;;;5060905;28;20183;-60
2022/10/27 12:14:14;;;;;;;3.63;2.20;;;20.50;61.00;;;;;;5061873;28;20211;-60
2022/10/27 12:16:49;;;;;;;4.50;2.07;;;20.80;59.10;;;;;;5029061;28;20230;-60
2022/10/27 12:19:43;;;;;;;4.57;2.10;;;21.00;58.80;;;;;;5031388;28;20277;-60
2022/10/27 12:22:34;;;;;;;3.90;2.00;;;21.00;59.80;;;;;;5035783;28;20199;-60
2022/10/27 12:25:10;;;;;;;4.07;2.00;;;20.80;61.00;;;;;;5064535;28;20242;-60
2022/10/27 12:27:40;;;;;;;2.80;1.83;;;20.80;61.10;;;;;;5020048;28;20249;-60
2022/10/27 12:30:20;;;;;;;4.67;2.00;;;20.80;59.70;;;;;;5029267;28;20190;-57
2022/10/27 12:33:10;;;;;;;6.23;1.80;;;20.90;61.50;;;;;;5031055;28;20278;-56
2022/10/27 12:35:59;;;;;;;2.87;1.73;;;21.00;61.40;;;;;;5038269;28;20191;-59
2022/10/27 12:38:38;;;;;;;2.73;1.70;;;21.10;58.80;;;;;;5058306;28;20509;-59
2022/10/27 12:41:24;;;;;;;4.13;1.90;;;21.30;60.40;;;;;;5044856;28;20202;-59
2022/10/27 12:43:59;;;;;;;3.67;1.60;;;21.40;58.60;;;;;;5040161;28;20255;-59
2022/10/27 12:46:30;;;;;;;3.13;1.80;;;21.60;57.80;;;;;;5046765;28;20289;-59
2022/10/27 12:48:59;;;;;;;3.77;1.60;;;21.60;58.10;;;;;;5045404;28;20178;-58
2022/10/27 12:51:47;;;;;;;5.77;1.63;;;21.80;57.10;;;;;;5031897;28;20191;-58
2022/10/27 12:54:33;;;;;;;3.60;1.47;;;21.80;57.70;;;;;;5028231;28;20243;-58
2022/10/27 12:57:18;;;;;;;4.40;1.50;;;21.80;57.80;;;;;;5030306;28;20199;-58
2022/10/27 13:00:06;;;;;;;3.37;1.50;;;21.90;56.80;;;;;;5039643;28;20213;-58
2022/10/27 13:02:43;;;;;;;3.10;1.50;;;21.90;58.70;;;;;;5059921;28;20210;-58
2022/10/27 13:05:20;;;;;;;3.47;1.30;;;22.00;58.00;;;;;;5034616;28;20183;-59
2022/10/27 13:08:18;;;;;;;1.63;1.37;;;22.00;58.70;;;;;;5031993;28;20261;-59